Time;durP1;ratioP1;P1;durP2;ratioP2;P2;SDS_P1;SDS_P2;PMS_P1;PMS_P2;Temp;Humidity;BMP_temperature;BMP_pressure;BME280_temperature;BME280_humidity;BME280_pressure;Samples;Min_cycle;Max_cycle;Signal;HPM_P1;HPM_P2
2022/09/26 00:02:55;;;;;;;7.43;4.88;;;;;;;12.66;100.00;98079.69;5090501;28;20394;-61
2022/09/26 00:05:40;;;;;;;6.30;4.32;;;;;;;12.65;100.00;98066.66;5090637;28;20028;-58
2022/09/26 00:08:25;;;;;;;5.85;4.43;;;;;;;12.59;100.00;98072.44;5088306;28;20028;-60
2022/09/26 00:11:13;;;;;;;6.07;3.60;;;;;;;12.59;100.00;98077.69;5087165;28;20048;-60
2022/09/26 00:14:01;;;;;;;5.15;3.75;;;;;;;12.60;100.00;98069.69;5093575;28;20452;-60
2022/09/26 00:16:46;;;;;;;5.00;4.10;;;;;;;12.64;100.00;98072.88;5089570;28;20035;-58
2022/09/26 00:19:30;;;;;;;5.40;3.70;;;;;;;12.65;100.00;98064.84;5090021;28;20044;-58
2022/09/26 00:22:15;;;;;;;7.60;4.97;;;;;;;12.65;100.00;98066.66;5091737;28;20038;-61
2022/09/26 00:24:59;;;;;;;6.25;4.55;;;;;;;12.58;100.00;98055.88;5091044;28;20073;-59
2022/09/26 00:27:44;;;;;;;6.20;4.20;;;;;;;12.53;100.00;98053.63;5089371;28;20043;-59
2022/09/26 00:30:29;;;;;;;6.80;4.85;;;;;;;12.55;100.00;98059.59;5087799;28;20081;-58
2022/09/26 00:33:14;;;;;;;4.65;3.63;;;;;;;12.55;100.00;98058.78;5088878;28;20028;-59
2022/09/26 00:35:59;;;;;;;3.72;2.83;;;;;;;12.52;100.00;98059.84;5083087;28;20044;-58
2022/09/26 00:38:44;;;;;;;4.25;3.15;;;;;;;12.50;100.00;98059.16;5116841;27;20064;-58
2022/09/26 00:41:29;;;;;;;3.83;2.92;;;;;;;12.51;100.00;98055.56;5091862;28;20036;-58
2022/09/26 00:44:55;;;;;;;3.50;2.83;;;;;;;12.52;100.00;98057.22;5087124;28;20356;-61
2022/09/26 00:47:45;;;;;;;3.40;2.30;;;;;;;12.52;100.00;98051.13;5067957;28;20115;-58
2022/09/26 00:50:35;;;;;;;3.88;2.58;;;;;;;12.61;100.00;98052.13;5081552;28;20067;-59
2022/09/26 00:53:28;;;;;;;4.20;2.92;;;;;;;12.60;100.00;98045.22;5068016;28;20067;-58
2022/09/26 00:56:18;;;;;;;5.40;3.45;;;;;;;12.56;100.00;98042.03;5083850;28;20074;-58
2022/09/26 00:59:15;;;;;;;3.83;3.38;;;;;;;12.51;100.00;98039.81;5065952;28;20051;-59
2022/09/26 01:02:00;;;;;;;7.43;5.45;;;;;;;12.43;100.00;98035.25;5066825;28;20044;-59
2022/09/26 01:04:46;;;;;;;6.88;5.45;;;;;;;12.29;100.00;98020.69;5057189;28;20036;-58
2022/09/26 01:07:32;;;;;;;6.93;5.28;;;;;;;12.19;100.00;98025.91;5080891;28;20048;-58
2022/09/26 01:10:17;;;;;;;7.32;4.90;;;;;;;12.12;100.00;98023.94;5089653;28;20133;-58
2022/09/26 01:13:03;;;;;;;5.50;4.50;;;;;;;12.07;100.00;98025.16;5085786;28;20032;-59
2022/09/26 01:15:48;;;;;;;7.80;5.20;;;;;;;12.04;100.00;98019.34;5074740;28;21026;-59
2022/09/26 01:18:33;;;;;;;7.40;4.93;;;;;;;12.01;100.00;98017.00;5076745;28;20044;-59
2022/09/26 01:21:49;;;;;;;5.80;3.88;;;;;;;12.05;100.00;98019.22;5092122;28;20554;-62
2022/09/26 01:25:22;;;;;;;7.30;5.18;;;;;;;12.11;100.00;98023.13;5095120;28;20466;-59
2022/09/26 01:28:25;;;;;;;6.65;4.40;;;;;;;12.15;100.00;98007.94;5085308;28;20130;-59
2022/09/26 01:31:14;;;;;;;7.13;4.95;;;;;;;12.15;100.00;98005.31;5089733;28;20458;-61
2022/09/26 01:34:25;;;;;;;6.60;5.18;;;;;;;12.09;100.00;98014.56;5079055;28;20040;-59
2022/09/26 01:37:39;;;;;;;6.03;4.50;;;;;;;12.04;100.00;98012.31;5104402;28;20383;-60
2022/09/26 01:40:53;;;;;;;8.15;5.65;;;;;;;12.05;100.00;98013.13;5057756;28;20083;-57
2022/09/26 01:43:55;;;;;;;6.65;5.03;;;;;;;12.05;100.00;98013.13;4988317;28;20112;-60
2022/09/26 01:46:40;;;;;;;10.88;5.90;;;;;;;12.04;100.00;98008.84;4991569;28;20035;-60
2022/09/26 01:49:37;;;;;;;8.43;4.55;;;;;;;12.09;100.00;97997.97;4980923;28;20113;-59
2022/09/26 01:52:50;;;;;;;8.32;5.32;;;;;;;12.14;100.00;97996.59;5007673;28;20070;-60
2022/09/26 01:55:44;;;;;;;5.10;3.88;;;;;;;12.14;100.00;98001.03;4991463;28;20048;-59
2022/09/26 01:58:48;;;;;;;4.80;3.65;;;;;;;12.16;100.00;97993.81;4973138;28;20172;-62
2022/09/26 02:01:38;;;;;;;6.15;4.28;;;;;;;12.11;100.00;97999.47;4972402;28;20050;-60
2022/09/26 02:04:31;;;;;;;7.10;5.30;;;;;;;12.09;100.00;97993.56;4969826;28;20050;-59
2022/09/26 02:07:23;;;;;;;7.55;6.00;;;;;;;12.10;100.00;97994.38;4963551;28;20417;-59
2022/09/26 02:10:17;;;;;;;6.40;4.82;;;;;;;12.08;100.00;97991.88;4967890;28;20054;-58
2022/09/26 02:13:10;;;;;;;9.30;6.72;;;;;;;12.01;100.00;97990.75;4977801;28;20058;-61
2022/09/26 02:16:01;;;;;;;8.85;6.22;;;;;;;12.01;100.00;97991.53;4960771;28;20177;-58
2022/09/26 02:19:04;;;;;;;10.02;6.45;;;;;;;12.04;100.00;97987.84;4972089;28;20486;-59
2022/09/26 02:21:50;;;;;;;6.80;5.13;;;;;;;12.00;100.00;97983.81;5025841;28;20579;-63
2022/09/26 02:24:35;;;;;;;8.40;6.82;;;;;;;12.01;100.00;97993.38;5030504;28;20053;-59
2022/09/26 02:27:20;;;;;;;10.07;4.95;;;;;;;11.96;100.00;97983.25;5023946;28;20071;-59
2022/09/26 02:30:06;;;;;;;7.30;5.00;;;;;;;11.96;100.00;97985.88;5020042;28;20365;-59
2022/09/26 02:32:50;;;;;;;21.83;6.72;;;;;;;11.99;100.00;97988.25;5073916;28;20064;-61
2022/09/26 02:35:54;;;;;;;11.85;5.63;;;;;;;11.94;100.00;97987.81;5094482;27;20067;-59
2022/09/26 02:38:39;;;;;;;13.68;7.53;;;;;;;11.95;100.00;97976.34;5094234;28;20075;-62
2022/09/26 02:41:52;;;;;;;9.75;6.07;;;;;;;11.88;100.00;97973.41;5093447;28;20052;-62
2022/09/26 02:45:08;;;;;;;10.50;7.50;;;;;;;11.90;100.00;97970.66;5090702;28;20070;-60
2022/09/26 02:48:12;;;;;;;10.00;6.43;;;;;;;11.84;100.00;97964.16;5103292;27;20042;-60
2022/09/26 02:51:15;;;;;;;12.80;7.72;;;;;;;11.73;100.00;97967.72;5106257;27;20032;-62
2022/09/26 02:54:19;;;;;;;11.82;8.23;;;;;;;11.73;100.00;97972.13;5108070;27;20059;-60
2022/09/26 02:57:12;;;;;;;11.35;7.65;;;;;;;11.70;100.00;97963.53;5094715;28;20119;-60
2022/09/26 03:00:19;;;;;;;12.98;8.77;;;;;;;11.72;100.00;97973.91;5089637;28;20648;-61
2022/09/26 03:03:31;;;;;;;12.68;8.50;;;;;;;11.74;100.00;97966.75;5096034;28;20077;-59
2022/09/26 03:06:19;;;;;;;12.65;8.65;;;;;;;11.65;100.00;97962.28;5106531;28;20032;-59
2022/09/26 03:09:08;;;;;;;12.85;8.65;;;;;;;11.65;100.00;97965.72;5082318;28;20472;-62
2022/09/26 03:11:54;;;;;;;11.05;7.85;;;;;;;11.67;100.00;97965.63;5085337;28;20087;-59
2022/09/26 03:14:41;;;;;;;11.05;7.50;;;;;;;11.65;100.00;97957.06;5095813;27;20043;-60
2022/09/26 03:17:27;;;;;;;18.15;10.73;;;;;;;11.59;100.00;97958.38;5102506;27;20455;-59
2022/09/26 03:20:18;;;;;;;15.90;11.32;;;;;;;11.53;100.00;97966.78;5093083;27;20032;-60
2022/09/26 03:23:03;;;;;;;14.35;9.88;;;;;;;11.52;100.00;97965.13;5100094;28;20784;-61
2022/09/26 03:26:08;;;;;;;15.32;10.27;;;;;;;11.57;100.00;97968.22;5094010;27;20062;-60
2022/09/26 03:28:55;;;;;;;15.15;9.70;;;;;;;11.63;100.00;97961.59;5094534;28;20027;-61
2022/09/26 03:31:43;;;;;;;16.00;11.07;;;;;;;11.61;100.00;97964.34;5091233;28;20430;-59
2022/09/26 03:34:28;;;;;;;16.20;10.93;;;;;;;11.61;100.00;97958.25;5089609;28;20039;-60
2022/09/26 03:37:15;;;;;;;18.17;11.77;;;;;;;11.55;100.00;97954.38;5092462;28;20043;-58
2022/09/26 03:40:06;;;;;;;16.38;10.90;;;;;;;11.53;100.00;97959.75;5104508;27;20063;-59
2022/09/26 03:43:09;;;;;;;17.25;11.93;;;;;;;11.53;100.00;97946.66;5095855;28;20055;-59
2022/09/26 03:45:53;;;;;;;20.15;12.57;;;;;;;11.49;100.00;97950.47;5090848;28;20044;-62
2022/09/26 03:48:43;;;;;;;17.85;11.85;;;;;;;11.47;100.00;97952.41;5087833;28;20050;-60
2022/09/26 03:51:29;;;;;;;15.75;10.77;;;;;;;11.50;100.00;97948.69;5090621;28;20036;-57
2022/09/26 03:54:15;;;;;;;19.52;11.93;;;;;;;11.53;100.00;97951.06;5088838;28;20416;-59
2022/09/26 03:56:59;;;;;;;12.65;8.60;;;;;;;11.51;100.00;97947.72;5094763;28;20064;-57
2022/09/26 03:59:45;;;;;;;19.60;12.77;;;;;;;11.47;100.00;97947.19;5089087;28;20119;-58
2022/09/26 04:02:29;;;;;;;17.45;12.50;;;;;;;11.47;100.00;97941.94;5082349;28;20024;-58
2022/09/26 04:05:30;;;;;;;16.55;12.02;;;;;;;11.40;100.00;97946.88;5087211;28;20084;-59
2022/09/26 04:08:14;;;;;;;17.55;12.40;;;;;;;11.45;100.00;97935.97;5090504;28;20047;-59
2022/09/26 04:11:07;;;;;;;17.98;11.70;;;;;;;11.49;100.00;97941.78;5093498;28;20372;-58
2022/09/26 04:13:52;;;;;;;18.52;12.73;;;;;;;11.42;100.00;97947.56;5087615;28;20043;-58
2022/09/26 04:16:39;;;;;;;19.17;10.77;;;;;;;11.40;100.00;97949.50;5082101;28;20063;-59
2022/09/26 04:19:32;;;;;;;19.25;13.95;;;;;;;11.35;100.00;97956.91;5094170;27;20028;-58
2022/09/26 04:22:17;;;;;;;16.63;12.38;;;;;;;11.34;100.00;97957.88;5087698;28;20055;-59
2022/09/26 04:25:02;;;;;;;18.85;12.70;;;;;;;11.37;100.00;97955.00;5112323;27;20039;-60
2022/09/26 04:27:47;;;;;;;21.65;15.57;;;;;;;11.34;100.00;97945.56;5095283;28;20155;-60
2022/09/26 04:30:33;;;;;;;16.90;11.73;;;;;;;11.30;100.00;97938.09;5076151;28;20036;-58
2022/09/26 04:33:20;;;;;;;22.27;15.05;;;;;;;11.20;100.00;97931.03;5080359;28;20372;-58
2022/09/26 04:36:21;;;;;;;24.02;16.00;;;;;;;11.18;100.00;97930.31;5095752;28;20082;-58
2022/09/26 04:39:06;;;;;;;20.77;13.95;;;;;;;11.13;100.00;97924.63;5099131;28;20040;-62
2022/09/26 04:41:52;;;;;;;19.50;14.20;;;;;;;11.10;100.00;97930.13;5087841;28;20040;-60
2022/09/26 04:44:37;;;;;;;18.52;13.38;;;;;;;11.17;100.00;97936.53;5087218;28;20432;-59
2022/09/26 04:47:21;;;;;;;18.30;11.82;;;;;;;11.21;100.00;97934.50;5099459;28;20036;-58
2022/09/26 04:50:27;;;;;;;21.52;13.90;;;;;;;11.26;100.00;97934.91;5088475;28;20454;-59
2022/09/26 04:53:23;;;;;;;20.42;14.45;;;;;;;11.19;100.00;97932.00;5087660;28;20126;-60
2022/09/26 04:56:33;;;;;;;23.92;15.00;;;;;;;11.20;100.00;97924.94;5089071;28;20047;-59
2022/09/26 04:59:17;;;;;;;21.67;14.63;;;;;;;11.24;100.00;97941.25;5088803;28;20453;-59
2022/09/26 05:02:11;;;;;;;20.70;13.90;;;;;;;11.19;100.00;97937.25;5092016;28;20055;-59
2022/09/26 05:04:59;;;;;;;21.27;13.68;;;;;;;11.20;100.00;97938.06;5087930;28;20418;-59
2022/09/26 05:07:44;;;;;;;14.77;11.32;;;;;;;11.23;100.00;97936.97;5088623;28;20054;-59
2022/09/26 05:10:30;;;;;;;15.65;12.40;;;;;;;11.38;100.00;97943.53;5081132;28;20066;-58
2022/09/26 05:13:21;;;;;;;16.38;12.13;;;;;;;11.40;100.00;97946.03;5085672;28;20028;-58
2022/09/26 05:16:07;;;;;;;17.15;12.77;;;;;;;11.43;100.00;97948.38;5086264;28;20055;-60
2022/09/26 05:18:55;;;;;;;18.23;14.18;;;;;;;11.51;100.00;97940.69;5091523;28;20028;-60
2022/09/26 05:21:41;;;;;;;18.27;13.02;;;;;;;11.54;100.00;97950.06;5093845;28;20085;-59
2022/09/26 05:27:29;;;;;;;14.95;10.68;;;;;;;11.61;100.00;97945.13;5087779;28;20062;-59
2022/09/26 05:30:14;;;;;;;16.35;12.32;;;;;;;11.60;100.00;97946.13;5083058;28;20177;-59
2022/09/26 05:32:59;;;;;;;16.05;12.07;;;;;;;11.52;100.00;97944.16;5076002;28;20051;-59
2022/09/26 05:35:48;;;;;;;16.92;12.75;;;;;;;11.51;100.00;97942.47;5088088;28;21829;-58
2022/09/26 05:38:33;;;;;;;15.27;11.50;;;;;;;11.51;100.00;97942.47;5088485;28;20123;-58
2022/09/26 05:41:18;;;;;;;15.05;11.85;;;;;;;11.52;100.00;97938.91;5086490;28;20197;-60
2022/09/26 05:44:04;;;;;;;18.05;12.35;;;;;;;11.53;100.00;97936.16;5087258;28;20190;-59
2022/09/26 05:46:51;;;;;;;14.50;11.38;;;;;;;11.55;100.00;97942.09;5087233;28;20028;-61
2022/09/26 05:49:35;;;;;;;14.43;11.65;;;;;;;11.70;100.00;97931.25;5073673;28;20042;-59
2022/09/26 05:52:21;;;;;;;16.05;11.48;;;;;;;11.83;100.00;97937.06;5085700;28;20115;-60
2022/09/26 05:55:10;;;;;;;12.57;9.38;;;;;;;11.89;100.00;97929.63;5088171;28;20039;-59
2022/09/26 05:58:31;;;;;;;11.35;8.70;;;;;;;11.92;100.00;97927.56;5088585;28;20066;-58
2022/09/26 06:01:39;;;;;;;14.00;10.48;;;;;;;11.94;100.00;97927.44;5074114;28;20052;-60
2022/09/26 06:04:36;;;;;;;10.90;8.18;;;;;;;11.98;100.00;97926.19;5066875;28;20050;-59
2022/09/26 06:07:58;;;;;;;11.85;8.55;;;;;;;12.04;100.00;97936.19;5035542;28;20064;-59
2022/09/26 06:11:05;;;;;;;11.02;8.65;;;;;;;12.07;100.00;97941.16;5054727;28;20079;-61
2022/09/26 06:13:49;;;;;;;12.52;9.07;;;;;;;12.06;100.00;97942.09;5026664;28;20046;-60
2022/09/26 06:16:35;;;;;;;13.32;9.43;;;;;;;12.06;100.00;97944.72;5034120;28;20045;-60
2022/09/26 06:19:19;;;;;;;12.27;9.45;;;;;;;12.04;100.00;97936.19;5040020;28;20099;-59
2022/09/26 06:22:04;;;;;;;14.00;10.32;;;;;;;12.04;100.00;97941.44;5041203;28;20079;-58
2022/09/26 06:24:49;;;;;;;13.52;10.45;;;;;;;11.93;100.00;97931.84;5038206;28;20099;-60
2022/09/26 06:27:37;;;;;;;11.20;8.73;;;;;;;11.90;100.00;97939.16;5032559;28;20037;-59
2022/09/26 06:30:23;;;;;;;12.82;9.65;;;;;;;11.81;100.00;97941.66;5019366;28;20437;-59
2022/09/26 06:33:10;;;;;;;13.20;9.10;;;;;;;11.98;100.00;97949.81;5039204;28;20099;-59
2022/09/26 06:36:14;;;;;;;10.57;8.57;;;;;;;12.01;100.00;97952.16;5037236;28;20058;-59
2022/09/26 06:38:59;;;;;;;10.15;7.63;;;;;;;12.19;100.00;97962.88;5034392;28;20136;-59
2022/09/26 06:41:49;;;;;;;7.82;6.47;;;;;;;12.22;100.00;97960.97;5062126;28;20510;-59
2022/09/26 06:44:48;;;;;;;8.95;6.80;;;;;;;12.28;100.00;97960.41;5110848;27;20130;-60
2022/09/26 06:47:54;;;;;;;8.00;6.22;;;;;;;12.27;100.00;97969.28;5109849;27;20049;-60
2022/09/26 06:50:55;;;;;;;8.10;6.28;;;;;;;12.17;100.00;97964.00;5107219;27;20108;-60
2022/09/26 06:53:43;;;;;;;7.60;5.72;;;;;;;12.21;100.00;97961.94;5098056;28;20134;-60
2022/09/26 06:56:28;;;;;;;9.60;6.57;;;;;;;12.09;100.00;97961.22;5112232;27;20039;-60
2022/09/26 06:59:15;;;;;;;7.72;5.50;;;;;;;12.27;100.00;97958.75;5080170;27;20044;-60
2022/09/26 07:02:07;;;;;;;7.50;5.20;;;;;;;12.43;100.00;97960.84;5094715;27;20090;-60
2022/09/26 07:05:14;;;;;;;6.75;4.85;;;;;;;12.71;100.00;97968.06;5094563;27;20399;-60
2022/09/26 07:08:07;;;;;;;7.32;5.25;;;;;;;12.75;100.00;97964.16;5109862;27;20080;-62
2022/09/26 07:10:54;;;;;;;8.10;5.43;;;;;;;12.91;100.00;97964.44;5109618;27;20146;-60
2022/09/26 07:13:45;;;;;;;6.88;5.43;;;;;;;12.87;100.00;97960.44;5083684;27;20047;-59
2022/09/26 07:16:30;;;;;;;8.55;5.22;;;;;;;12.92;100.00;97960.03;5099256;28;20050;-59
2022/09/26 07:19:35;;;;;;;6.78;5.28;;;;;;;12.91;100.00;97968.88;5088479;28;20119;-63
2022/09/26 07:22:22;;;;;;;8.02;5.40;;;;;;;13.04;100.00;97976.47;5099423;28;20111;-58
2022/09/26 07:25:10;;;;;;;8.38;4.90;;;;;;;13.12;100.00;97975.78;5089936;28;20395;-59
2022/09/26 07:27:55;;;;;;;8.95;5.50;;;;;;;13.19;100.00;97979.47;5093278;28;20094;-59
2022/09/26 07:31:00;;;;;;;7.55;4.97;;;;;;;13.40;100.00;97976.66;5099651;28;20114;-59
2022/09/26 07:33:57;;;;;;;6.80;4.90;;;;;;;13.62;100.00;97984.38;5104157;28;20055;-59
2022/09/26 07:36:42;;;;;;;7.80;5.63;;;;;;;13.45;100.00;97986.75;5093788;28;20055;-59
2022/09/26 07:39:27;;;;;;;7.32;5.40;;;;;;;13.34;100.00;97984.28;5090054;28;20387;-58
2022/09/26 07:42:16;;;;;;;8.90;6.45;;;;;;;13.41;100.00;97988.88;5105417;27;20078;-60
2022/09/26 07:45:05;;;;;;;8.88;5.65;;;;;;;13.42;100.00;97984.41;5088785;28;20040;-59
2022/09/26 07:51:21;;;;;;;8.75;6.07;;;;;;;13.79;100.00;97967.84;5069297;28;20044;-59
2022/09/26 07:54:07;;;;;;;8.30;5.90;;;;;;;13.71;100.00;97972.19;5069641;28;20039;-59
2022/09/26 07:57:11;;;;;;;7.65;6.03;;;;;;;13.64;100.00;97967.47;5062098;28;20083;-60
2022/09/26 08:00:13;;;;;;;9.00;6.18;;;;;;;13.83;100.00;97970.16;5083387;28;20574;-59
2022/09/26 08:03:19;;;;;;;8.05;5.65;;;;;;;14.09;100.00;97969.47;5073224;28;20055;-58
2022/09/26 08:06:05;;;;;;;8.00;5.80;;;;;;;14.41;100.00;97976.09;5072130;28;21256;-61
2022/09/26 08:08:54;;;;;;;8.10;5.20;;;;;;;14.45;100.00;97971.34;5084992;28;20052;-59
2022/09/26 08:11:59;;;;;;;6.15;4.60;;;;;;;15.04;100.00;97978.81;5078590;28;20042;-59
2022/09/26 08:15:20;;;;;;;7.97;5.28;;;;;;;14.98;99.68;97971.50;4985476;28;20046;-61
2022/09/26 08:18:05;;;;;;;6.40;5.03;;;;;;;15.32;99.85;97976.03;4984748;28;20155;-61
2022/09/26 08:20:49;;;;;;;8.73;5.88;;;;;;;15.46;95.18;97979.91;4983762;28;20134;-61
2022/09/26 08:23:34;;;;;;;6.13;4.50;;;;;;;15.52;95.74;97981.09;4984617;28;20042;-58
2022/09/26 08:26:39;;;;;;;11.82;5.97;;;;;;;15.55;97.01;97986.06;4985575;28;20650;-62
2022/09/26 08:29:35;;;;;;;7.65;4.78;;;;;;;15.63;96.15;97986.09;4979071;28;20046;-59
2022/09/26 08:32:20;;;;;;;6.72;4.72;;;;;;;15.57;95.37;97996.47;5003684;28;20927;-59
2022/09/26 08:35:06;;;;;;;5.40;3.92;;;;;;;16.23;93.63;97996.78;4982159;28;20151;-59
2022/09/26 08:37:50;;;;;;;7.03;4.47;;;;;;;16.56;91.39;98005.78;4998008;28;20050;-61
2022/09/26 08:41:05;;;;;;;4.97;3.95;;;;;;;16.75;90.40;98002.00;4993535;28;20046;-60
2022/09/26 08:44:04;;;;;;;8.20;5.38;;;;;;;17.57;85.04;97996.84;4990210;28;20062;-60
2022/09/26 08:47:29;;;;;;;5.70;3.90;;;;;;;18.47;81.84;97988.72;5004914;28;20052;-60
2022/09/26 08:50:52;;;;;;;8.75;4.80;;;;;;;17.64;78.92;97986.41;5017435;28;20052;-60
2022/09/26 08:53:48;;;;;;;5.57;4.28;;;;;;;17.31;82.78;97995.25;5084232;28;20044;-62
2022/09/26 08:56:43;;;;;;;7.57;5.07;;;;;;;17.53;81.21;97993.69;5090385;28;20115;-60
2022/09/26 08:59:36;;;;;;;6.80;4.45;;;;;;;18.24;78.24;97994.81;5095603;28;20039;-59
2022/09/26 09:02:32;;;;;;;4.90;3.72;;;;;;;18.17;80.51;97992.00;5088328;28;20475;-60
2022/09/26 09:05:28;;;;;;;6.72;3.97;;;;;;;18.20;80.02;97994.31;5102668;28;20051;-59
2022/09/26 09:08:20;;;;;;;6.70;3.90;;;;;;;18.45;76.99;97991.53;5105956;28;20052;-61
2022/09/26 09:12:05;;;;;;;5.80;3.97;;;;;;;17.81;78.99;97995.94;5087661;28;20047;-60
2022/09/26 09:15:05;;;;;;;7.05;4.55;;;;;;;16.87;83.38;97989.28;5098541;28;20467;-59
2022/09/26 09:18:26;;;;;;;5.28;3.88;;;;;;;17.49;82.57;97989.75;5099093;28;20039;-58
2022/09/26 09:21:40;;;;;;;7.80;3.70;;;;;;;17.08;83.55;97985.31;5080331;28;20028;-59
2022/09/26 09:24:58;;;;;;;4.85;3.50;;;;;;;17.22;83.07;97989.13;5093497;28;20157;-59
2022/09/26 09:28:14;;;;;;;4.43;3.13;;;;;;;17.07;81.94;97986.31;5098503;28;20051;-59
2022/09/26 09:31:03;;;;;;;5.28;3.40;;;;;;;18.97;74.62;97980.38;5081143;28;20047;-60
2022/09/26 09:33:52;;;;;;;;;;;;;;;20.72;64.72;97975.72;5088475;28;20126;-60
2022/09/26 09:37:11;;;;;;;5.45;3.70;;;;;;;21.58;61.75;97973.09;5070432;28;19959;-62
2022/09/26 09:40:30;;;;;;;4.72;3.60;;;;;;;21.31;61.14;97975.59;5074797;28;20131;-59
2022/09/26 09:43:28;;;;;;;5.00;3.83;;;;;;;21.57;58.85;97970.63;5053858;28;20040;-60
2022/09/26 09:46:27;;;;;;;4.82;3.10;;;;;;;21.03;63.34;97974.59;5055572;28;20040;-62
2022/09/26 09:49:22;;;;;;;5.47;3.92;;;;;;;21.02;60.78;97972.13;5070795;28;20056;-60
2022/09/26 09:52:19;;;;;;;4.47;3.28;;;;;;;20.58;64.49;97979.25;5054775;28;20039;-60
2022/09/26 09:55:19;;;;;;;5.88;4.10;;;;;;;21.29;62.63;97989.13;5045508;28;20037;-54
2022/09/26 09:58:03;;;;;;;6.95;4.10;;;;;;;20.98;59.71;97974.31;5065651;28;20037;-51
2022/09/26 10:01:13;;;;;;;5.60;3.50;;;;;;;20.05;64.46;97971.34;5057971;28;20059;-55
2022/09/26 10:04:04;;;;;;;9.35;5.00;;;;;;;20.38;60.65;97967.41;5063669;28;20040;-49
2022/09/26 10:10:32;;;;;;;5.65;4.30;;;;;;;21.82;56.36;97976.31;5035302;28;20048;-57
2022/09/26 10:13:44;;;;;;;7.85;4.57;;;;;;;22.47;55.93;97959.13;5033640;28;20075;-51
2022/09/26 10:17:35;;;;;;;5.07;3.70;;;;;;;20.97;57.33;97969.19;5046852;28;20088;-53
2022/09/26 10:20:40;;;;;;;5.55;3.63;;;;;;;21.73;55.99;97961.47;4967697;28;20633;-51
2022/09/26 10:23:33;;;;;;;6.22;3.90;;;;;;;20.47;58.46;97952.13;5006990;28;20057;-56
2022/09/26 10:26:33;;;;;;;5.93;4.03;;;;;;;19.32;62.82;97959.50;4991931;28;20073;-57
2022/09/26 10:29:33;;;;;;;5.18;3.90;;;;;;;18.84;63.74;97962.41;5006718;28;20132;-49
2022/09/26 10:32:18;;;;;;;5.65;3.80;;;;;;;18.45;66.62;97962.38;4989851;28;20100;-46
2022/09/26 10:35:34;;;;;;;5.30;3.95;;;;;;;18.69;65.72;97962.34;4991586;28;20049;-54
2022/09/26 10:38:28;;;;;;;6.85;4.13;;;;;;;20.66;59.62;97957.84;4986422;28;20525;-54
2022/09/26 10:41:24;;;;;;;5.60;4.03;;;;;;;21.33;57.23;97948.78;4969722;28;20049;-51
2022/09/26 10:44:24;;;;;;;5.70;3.40;;;;;;;23.00;52.32;97944.19;4974100;28;20037;-47
2022/09/26 10:47:28;;;;;;;6.25;3.58;;;;;;;24.71;48.47;97940.66;4986678;28;20520;-60
2022/09/26 10:50:23;;;;;;;4.75;3.30;;;;;;;23.68;48.93;97941.38;5016471;28;20037;-49
2022/09/26 10:53:35;;;;;;;6.00;3.85;;;;;;;23.80;46.69;97935.38;5056034;28;20522;-49
2022/09/26 10:56:25;;;;;;;4.75;3.47;;;;;;;22.54;50.37;97939.63;5066645;28;20068;-51
2022/09/26 10:59:14;;;;;;;6.78;3.60;;;;;;;21.13;55.54;97949.47;5065842;28;20049;-51
2022/09/26 11:02:01;;;;;;;5.75;2.97;;;;;;;23.11;50.71;97936.59;5063682;28;20439;-51
2022/09/26 11:08:06;;;;;;;4.80;3.60;;;;;;;22.71;49.50;97940.91;5065548;28;20120;-51
2022/09/26 11:11:15;;;;;;;4.57;2.83;;;;;;;24.84;47.40;97938.94;5087224;28;20121;-54
2022/09/26 11:14:08;;;;;;;4.13;2.85;;;;;;;24.28;47.44;97933.34;5087051;28;20040;-55
2022/09/26 11:16:55;;;;;;;4.18;3.00;;;;;;;24.18;46.62;97931.97;5087535;28;20043;-55
2022/09/26 11:19:56;;;;;;;6.32;2.50;;;;;;;24.56;44.81;97935.63;5089958;28;20060;-54
2022/09/26 11:22:43;;;;;;;3.67;2.60;;;;;;;24.63;44.23;97935.56;5088084;28;20067;-55
2022/09/26 11:25:36;;;;;;;5.03;3.40;;;;;;;22.80;46.50;97927.34;5089790;28;20028;-52
2022/09/26 11:28:43;;;;;;;3.03;2.22;;;;;;;24.08;44.43;97928.88;5091454;28;20065;-53
2022/09/26 11:31:55;;;;;;;4.20;2.45;;;;;;;22.97;47.79;97927.75;5093582;28;20043;-56
2022/09/26 11:34:45;;;;;;;3.55;2.45;;;;;;;25.27;44.33;97933.81;5090964;28;20104;-54
2022/09/26 11:37:49;;;;;;;3.30;2.13;;;;;;;24.24;43.66;97922.25;5108669;27;20043;-57
2022/09/26 11:40:38;;;;;;;3.03;2.25;;;;;;;23.73;44.08;97922.88;5089630;28;20050;-52
2022/09/26 11:43:52;;;;;;;3.88;2.08;;;;;;;23.03;44.92;97924.25;5094791;28;20042;-55
2022/09/26 11:47:18;;;;;;;2.85;2.38;;;;;;;22.61;46.48;97922.63;5069119;28;20047;-53
2022/09/26 11:50:35;;;;;;;2.85;2.00;;;;;;;24.75;43.46;97910.78;5059451;28;20062;-53
2022/09/26 11:53:44;;;;;;;3.28;2.20;;;;;;;24.61;42.48;97894.84;5051523;28;20614;-51
2022/09/26 11:56:49;;;;;;;3.97;2.10;;;;;;;23.99;43.95;97889.03;5062687;28;20044;-51
2022/09/26 11:59:39;;;;;;;2.78;2.22;;;;;;;25.94;40.89;97886.69;5060207;28;20100;-53
2022/09/26 12:02:32;;;;;;;2.10;1.63;;;;;;;25.54;41.25;97891.47;5068317;28;20147;-53
2022/09/26 12:05:41;;;;;;;3.50;2.53;;;;;;;23.46;45.39;97888.22;5082159;28;20039;-53
2022/09/26 12:08:56;;;;;;;3.20;2.40;;;;;;;23.65;45.11;97882.22;5068933;28;20135;-57
2022/09/26 12:11:53;;;;;;;3.63;2.20;;;;;;;24.06;45.79;97893.50;5066966;28;20111;-57
2022/09/26 12:15:07;;;;;;;2.50;2.03;;;;;;;23.86;46.48;97897.13;5071883;28;20121;-57
2022/09/26 12:18:12;;;;;;;3.13;1.83;;;;;;;24.70;43.26;97904.22;5067015;28;20055;-47
2022/09/26 12:21:29;;;;;;;3.03;1.48;;;;;;;24.39;42.52;97886.34;5069641;28;20056;-55
2022/09/26 12:24:34;;;;;;;2.78;1.90;;;;;;;24.28;44.07;97890.53;5088002;28;20040;-56
2022/09/26 12:27:34;;;;;;;2.67;2.05;;;;;;;23.14;46.76;97880.06;5098749;28;20110;-51
2022/09/26 12:30:25;;;;;;;4.00;2.05;;;;;;;23.63;45.06;97883.22;5092536;27;20035;-53
2022/09/26 12:33:34;;;;;;;2.35;1.70;;;;;;;23.00;45.84;97881.94;5088438;28;20048;-52
2022/09/26 12:36:38;;;;;;;2.33;1.85;;;;;;;22.21;47.36;97872.66;5101354;28;20742;-52
2022/09/26 12:39:35;;;;;;;2.72;1.80;;;;;;;22.40;47.13;97871.06;5100538;28;20143;-52
2022/09/26 12:42:48;;;;;;;3.67;1.77;;;;;;;22.03;47.79;97859.94;5092473;28;20036;-50
2022/09/26 12:46:21;;;;;;;4.53;1.63;;;;;;;22.55;46.39;97851.38;5088518;28;20046;-47
2022/09/26 12:49:11;;;;;;;3.47;1.70;;;;;;;22.70;46.34;97845.03;5095036;28;20510;-53
2022/09/26 12:52:42;;;;;;;2.47;1.90;;;;;;;24.27;42.62;97846.91;5090940;28;20155;-56
2022/09/26 12:55:46;;;;;;;11.00;1.95;;;;;;;24.44;42.33;97836.50;5087884;28;20616;-51
2022/09/26 12:58:57;;;;;;;3.42;1.50;;;;;;;22.81;43.46;97835.56;5088633;28;20111;-54
2022/09/26 13:02:08;;;;;;;2.03;1.40;;;;;;;21.78;46.22;97837.31;5098042;28;20062;-53
2022/09/26 13:05:17;;;;;;;;;;;;;;;22.00;46.47;97837.16;5090458;28;20040;-52
2022/09/26 13:08:11;;;;;;;2.50;1.42;;;;;;;22.45;45.39;97833.09;5093010;28;19916;-52
2022/09/26 13:11:15;;;;;;;2.05;1.13;;;;;;;23.21;43.98;97831.97;5091521;28;20036;-56
2022/09/26 13:14:19;;;;;;;2.00;1.40;;;;;;;21.63;46.88;97820.63;5092672;28;20048;-53
2022/09/26 13:17:15;;;;;;;4.72;1.52;;;;;;;21.46;47.52;97818.31;5089124;28;20114;-50
2022/09/26 13:20:18;;;;;;;2.47;1.50;;;;;;;20.43;49.71;97825.88;5092052;28;20043;-56
2022/09/26 13:23:26;;;;;;;1.65;1.10;;;;;;;19.80;51.46;97824.66;5104014;28;20043;-51
2022/09/26 13:26:16;;;;;;;1.80;1.38;;;;;;;19.76;52.10;97824.22;5087578;28;20746;-56
2022/09/26 13:29:12;;;;;;;2.85;1.58;;;;;;;19.51;52.53;97819.22;5090919;28;20128;-54
2022/09/26 13:32:13;;;;;;;2.03;1.27;;;;;;;19.69;52.27;97818.00;5092812;28;20433;-56
2022/09/26 13:35:06;;;;;;;2.63;1.60;;;;;;;20.45;50.37;97818.50;5101828;28;20055;-54
2022/09/26 13:37:59;;;;;;;1.58;1.23;;;;;;;21.32;48.88;97811.28;5090533;28;20047;-50
2022/09/26 13:41:01;;;;;;;2.33;1.30;;;;;;;23.12;45.09;97810.03;5092529;28;20040;-52
2022/09/26 13:44:07;;;;;;;2.33;1.25;;;;;;;21.32;47.72;97805.97;5087922;28;20044;-56
2022/09/26 13:47:11;;;;;;;1.95;1.38;;;;;;;19.66;52.26;97815.72;5092386;28;20046;-50
2022/09/26 13:50:17;;;;;;;1.98;1.30;;;;;;;19.21;53.67;97821.91;5093065;28;20149;-53
2022/09/26 13:53:11;;;;;;;2.22;1.08;;;;;;;19.16;54.73;97824.31;5093438;28;20476;-54